Terminal Aerodrome Forecast
Issued by NWS

Home | Current Version | Previous Version | Text Only | Print | Product List | Glossary On
Versions: 1 2 3 4 5 6 7 8 9 10 11 12 13
275
FTUS45 KREV 252331
TAFMMH
TAF
KMMH 252331Z 2600/2624 28008KT P6SM SCT060 SCT200
     FM260400 VRB04KT P6SM SCT070 BKN200
     FM261800 21011KT P6SM BKN110 OVC150=

USA.gov is the U.S. government's official web portal to all federal, state and local government web resources and services.